Time;durP1;ratioP1;P1;durP2;ratioP2;P2;SDS_P1;SDS_P2;PMS_P1;PMS_P2;Temp;Humidity;BMP_temperature;BMP_pressure;BME280_temperature;BME280_humidity;BME280_pressure;Samples;Min_cycle;Max_cycle;Signal;HPM_P1;HPM_P2
2023/02/18 00:00:08;;;;;;;6.10;4.47;;;11.90;99.90;;;;;;5111315;28;20176;-69
2023/02/18 00:02:33;;;;;;;6.83;5.30;;;11.90;99.90;;;;;;5112555;28;20157;-69
2023/02/18 00:04:59;;;;;;;8.67;5.40;;;11.90;99.90;;;;;;5112277;28;20414;-69
2023/02/18 00:07:24;;;;;;;6.13;4.30;;;11.80;99.90;;;;;;5112029;28;20535;-69
2023/02/18 00:09:50;;;;;;;7.20;5.30;;;11.80;99.90;;;;;;5112387;28;20179;-69
2023/02/18 00:12:16;;;;;;;5.47;4.33;;;11.80;99.90;;;;;;5136098;27;20179;-70
2023/02/18 00:14:41;;;;;;;9.07;4.70;;;11.80;99.90;;;;;;5135685;27;20210;-69
2023/02/18 00:17:07;;;;;;;6.13;5.43;;;11.80;99.90;;;;;;5129706;27;20186;-69
2023/02/18 00:19:32;;;;;;;7.10;4.77;;;11.70;99.90;;;;;;5112282;28;20223;-69
2023/02/18 00:21:58;;;;;;;8.10;5.40;;;11.70;99.90;;;;;;5112288;28;20168;-69
2023/02/18 00:24:23;;;;;;;5.47;4.97;;;11.80;99.90;;;;;;5112345;28;20558;-69
2023/02/18 00:26:51;;;;;;;6.73;5.10;;;11.70;99.90;;;;;;5112054;28;20187;-69
2023/02/18 00:29:17;;;;;;;5.83;4.70;;;11.70;99.90;;;;;;5120520;28;20661;-69
2023/02/18 00:31:42;;;;;;;4.30;3.90;;;11.80;99.90;;;;;;5132858;27;20514;-69
2023/02/18 00:34:10;;;;;;;7.53;5.17;;;11.80;99.90;;;;;;5136319;27;20492;-69
2023/02/18 00:36:36;;;;;;;6.63;5.10;;;11.80;99.90;;;;;;5128551;27;20697;-69
2023/02/18 00:39:07;;;;;;;4.63;3.67;;;11.80;99.90;;;;;;5116216;28;20427;-69
2023/02/18 00:41:33;;;;;;;5.60;4.67;;;11.80;99.90;;;;;;5116348;28;20222;-69
2023/02/18 00:43:58;;;;;;;5.67;5.17;;;11.80;99.90;;;;;;5114908;28;20916;-69
2023/02/18 00:46:24;;;;;;;5.93;4.30;;;11.80;99.90;;;;;;5116268;28;20413;-69
2023/02/18 00:48:50;;;;;;;6.97;4.97;;;11.80;99.90;;;;;;5115675;28;20233;-69
2023/02/18 00:51:16;;;;;;;6.10;4.73;;;11.80;99.90;;;;;;5116076;28;20493;-69
2023/02/18 00:53:41;;;;;;;8.07;5.20;;;11.80;99.90;;;;;;5116066;28;20259;-69
2023/02/18 00:56:07;;;;;;;4.60;3.90;;;11.80;99.90;;;;;;5115731;28;20200;-69
2023/02/18 00:58:34;;;;;;;6.60;4.20;;;11.80;99.90;;;;;;5114328;28;20195;-69
2023/02/18 01:01:00;;;;;;;6.10;4.30;;;11.70;99.90;;;;;;5116108;28;20173;-69
2023/02/18 01:03:26;;;;;;;5.17;4.00;;;11.70;99.90;;;;;;5115895;28;20410;-69
2023/02/18 01:05:52;;;;;;;7.07;4.17;;;11.70;99.90;;;;;;5128587;27;20413;-69
2023/02/18 01:08:19;;;;;;;5.33;3.57;;;11.80;99.90;;;;;;5135961;27;20470;-69
2023/02/18 01:10:47;;;;;;;4.50;4.07;;;11.80;99.90;;;;;;5136425;27;20454;-69
2023/02/18 01:13:14;;;;;;;4.50;4.00;;;11.70;99.90;;;;;;5136091;27;20844;-69
2023/02/18 01:15:41;;;;;;;4.23;3.33;;;11.70;99.90;;;;;;5136240;27;20453;-69
2023/02/18 01:18:07;;;;;;;4.27;3.87;;;11.80;99.90;;;;;;5135854;27;20915;-69
2023/02/18 01:20:34;;;;;;;4.17;3.43;;;11.80;99.90;;;;;;5136302;27;20776;-69
2023/02/18 01:23:00;;;;;;;4.93;3.17;;;11.80;99.90;;;;;;5139298;27;20920;-69
2023/02/18 01:25:25;;;;;;;6.80;3.00;;;11.80;99.90;;;;;;5144166;27;20410;-69
2023/02/18 01:27:51;;;;;;;3.57;3.23;;;11.90;99.90;;;;;;5135716;27;20192;-69
2023/02/18 01:30:17;;;;;;;4.07;3.77;;;11.80;99.90;;;;;;5135831;27;20180;-69
2023/02/18 01:32:44;;;;;;;5.60;3.50;;;11.70;99.90;;;;;;5135922;27;20817;-69
2023/02/18 01:35:13;;;;;;;4.17;3.20;;;11.70;99.90;;;;;;5135853;27;20476;-69
2023/02/18 01:37:38;;;;;;;4.33;3.37;;;11.70;99.90;;;;;;5114932;28;20395;-69
2023/02/18 01:40:05;;;;;;;6.07;4.07;;;11.60;99.90;;;;;;5115216;28;20425;-69
2023/02/18 01:42:31;;;;;;;5.70;4.10;;;11.60;99.90;;;;;;5115242;28;20172;-69
2023/02/18 01:45:37;;;;;;;4.20;3.10;;;11.60;99.90;;;;;;5114088;28;20399;-69
2023/02/18 01:48:10;;;;;;;4.83;3.90;;;11.60;99.90;;;;;;5114591;28;20189;-69
2023/02/18 01:50:40;;;;;;;5.27;3.43;;;11.60;99.90;;;;;;5113728;28;20796;-69
2023/02/18 01:53:07;;;;;;;7.90;3.67;;;11.60;99.90;;;;;;5114990;28;20447;-69
2023/02/18 01:55:34;;;;;;;3.73;3.40;;;11.60;99.90;;;;;;5114850;28;20454;-69
2023/02/18 01:58:00;;;;;;;5.30;3.60;;;11.50;99.90;;;;;;5114430;28;20423;-69
2023/02/18 02:00:26;;;;;;;4.63;3.53;;;11.50;99.90;;;;;;5114845;28;20407;-69
2023/02/18 02:02:52;;;;;;;3.73;3.07;;;11.50;99.90;;;;;;5114905;28;20927;-69
2023/02/18 02:05:19;;;;;;;5.03;4.07;;;11.50;99.90;;;;;;5126989;27;20247;-69
2023/02/18 02:07:49;;;;;;;5.40;4.20;;;11.50;99.90;;;;;;5115784;27;20429;-69
2023/02/18 02:10:15;;;;;;;4.07;3.40;;;11.50;99.90;;;;;;5114511;28;20411;-69
2023/02/18 02:12:49;;;;;;;6.37;4.33;;;11.50;99.90;;;;;;5114590;28;20399;-69
2023/02/18 02:15:40;;;;;;;5.53;3.90;;;11.50;99.90;;;;;;5114561;28;20561;-69
2023/02/18 02:18:16;;;;;;;5.97;4.07;;;11.60;99.90;;;;;;5114150;28;20419;-69
2023/02/18 02:21:01;;;;;;;6.23;4.27;;;11.70;99.90;;;;;;5114051;28;20897;-69
2023/02/18 02:23:51;;;;;;;4.80;3.80;;;11.60;99.90;;;;;;5113985;28;20576;-69
2023/02/18 02:26:37;;;;;;;5.63;5.07;;;11.60;99.90;;;;;;5113699;28;20584;-69
2023/02/18 02:29:25;;;;;;;8.60;5.20;;;11.70;99.90;;;;;;5112543;28;20430;-69
2023/02/18 02:32:09;;;;;;;7.43;4.30;;;11.70;99.90;;;;;;5114080;28;20925;-69
2023/02/18 02:34:56;;;;;;;5.33;4.60;;;11.70;99.90;;;;;;5120702;27;20459;-69
2023/02/18 02:37:37;;;;;;;6.20;4.77;;;11.80;99.90;;;;;;5132353;27;20414;-69
2023/02/18 02:40:33;;;;;;;5.80;5.07;;;11.70;99.90;;;;;;5134660;27;20386;-69
2023/02/18 02:43:13;;;;;;;9.27;6.37;;;11.80;99.90;;;;;;5134522;27;20458;-69
2023/02/18 02:45:42;;;;;;;8.10;5.73;;;11.80;99.90;;;;;;5134481;27;20444;-69
2023/02/18 02:48:10;;;;;;;6.90;5.03;;;11.90;99.90;;;;;;5134080;27;20414;-69
2023/02/18 02:50:50;;;;;;;8.50;5.97;;;11.90;99.90;;;;;;5134417;27;20394;-69
2023/02/18 02:53:23;;;;;;;8.73;4.90;;;11.80;99.90;;;;;;5134238;27;20801;-69
2023/02/18 02:55:48;;;;;;;6.73;5.23;;;11.90;99.90;;;;;;5134111;27;20453;-69
2023/02/18 02:58:17;;;;;;;6.77;4.77;;;11.90;99.90;;;;;;5133857;27;20446;-69
2023/02/18 03:00:57;;;;;;;9.10;6.53;;;11.80;99.90;;;;;;5134276;27;20152;-69
2023/02/18 03:03:28;;;;;;;11.13;5.67;;;11.90;99.90;;;;;;5134207;27;20744;-69
2023/02/18 03:06:31;;;;;;;8.03;5.90;;;11.90;99.90;;;;;;5132421;27;20919;-69
2023/02/18 03:09:12;;;;;;;6.17;4.83;;;11.90;99.90;;;;;;5133633;27;20421;-69
2023/02/18 03:11:45;;;;;;;8.27;5.90;;;11.80;99.90;;;;;;5129436;27;20442;-70
2023/02/18 03:14:53;;;;;;;6.70;5.17;;;11.80;99.90;;;;;;5113249;28;20446;-70
2023/02/18 03:17:28;;;;;;;5.57;4.70;;;11.80;99.90;;;;;;5113108;28;20391;-70
2023/02/18 03:20:02;;;;;;;9.73;5.87;;;11.70;99.90;;;;;;5113372;28;20402;-70
2023/02/18 03:22:36;;;;;;;6.70;4.37;;;11.70;99.90;;;;;;5113297;28;20387;-70
2023/02/18 03:25:03;;;;;;;5.33;3.90;;;11.70;99.90;;;;;;5113282;28;20382;-70
2023/02/18 03:27:33;;;;;;;3.73;2.53;;;11.70;99.90;;;;;;5112791;28;20758;-70
2023/02/18 03:30:47;;;;;;;4.87;4.23;;;11.70;99.90;;;;;;5113145;28;20387;-70
2023/02/18 03:33:17;;;;;;;5.00;4.50;;;11.70;99.90;;;;;;5067761;28;20410;-70
2023/02/18 03:35:44;;;;;;;9.13;6.40;;;11.60;99.90;;;;;;5113987;27;20948;-69
2023/02/18 03:38:22;;;;;;;3.77;3.37;;;11.60;99.90;;;;;;5112555;28;20825;-70
2023/02/18 03:40:48;;;;;;;5.60;3.67;;;11.40;99.90;;;;;;5112908;28;20398;-70
2023/02/18 03:43:14;;;;;;;3.33;2.70;;;11.40;99.90;;;;;;5112982;28;20907;-69
2023/02/18 03:45:39;;;;;;;3.73;3.20;;;11.30;99.90;;;;;;5117584;27;20402;-69
2023/02/18 03:48:05;;;;;;;5.40;2.60;;;11.30;99.90;;;;;;5141118;27;20669;-69
2023/02/18 03:50:31;;;;;;;4.23;3.53;;;11.20;99.90;;;;;;5153991;27;20163;-69
2023/02/18 03:52:56;;;;;;;4.10;3.33;;;11.20;99.90;;;;;;5153873;27;20399;-69
2023/02/18 03:55:22;;;;;;;3.33;2.97;;;11.20;99.90;;;;;;5153918;27;20192;-69
2023/02/18 03:57:48;;;;;;;13.60;9.13;;;11.10;99.90;;;;;;5153618;27;20541;-70
2023/02/18 04:00:14;;;;;;;2.93;2.17;;;11.10;99.90;;;;;;5153962;27;20195;-70
2023/02/18 04:02:40;;;;;;;3.00;2.50;;;11.10;99.90;;;;;;5153905;27;20164;-70
2023/02/18 04:05:07;;;;;;;2.70;2.50;;;11.10;99.90;;;;;;5126533;27;20206;-70
2023/02/18 04:07:32;;;;;;;3.37;2.60;;;11.10;99.90;;;;;;5111540;28;20411;-70
2023/02/18 04:09:58;;;;;;;1.80;1.70;;;11.10;99.90;;;;;;5112543;28;20402;-70
2023/02/18 04:12:23;;;;;;;1.90;1.70;;;11.10;99.90;;;;;;5112570;28;20250;-70
2023/02/18 04:14:49;;;;;;;2.60;1.40;;;11.10;99.90;;;;;;5112208;28;20227;-70
2023/02/18 04:17:14;;;;;;;1.47;1.00;;;11.00;99.90;;;;;;5112088;28;20625;-70
2023/02/18 04:19:40;;;;;;;1.70;1.30;;;11.10;99.90;;;;;;5112178;28;20195;-69
2023/02/18 04:22:05;;;;;;;2.07;1.70;;;11.10;99.90;;;;;;5112214;28;20157;-70
2023/02/18 04:24:31;;;;;;;1.17;1.03;;;11.10;99.90;;;;;;5112289;28;20188;-70
2023/02/18 04:26:56;;;;;;;1.87;1.33;;;11.10;99.90;;;;;;5112014;28;20204;-69
2023/02/18 04:29:22;;;;;;;1.70;1.10;;;11.00;99.90;;;;;;5112079;28;20185;-70
2023/02/18 04:31:47;;;;;;;1.90;1.70;;;11.10;99.90;;;;;;5112143;28;20164;-69
2023/02/18 04:34:13;;;;;;;1.30;1.00;;;11.00;99.90;;;;;;5115811;28;20177;-69
2023/02/18 04:36:38;;;;;;;1.87;1.43;;;11.00;99.90;;;;;;5132337;27;20198;-69
2023/02/18 04:39:04;;;;;;;1.30;1.10;;;10.90;99.90;;;;;;5132390;28;20195;-69
2023/02/18 04:41:29;;;;;;;1.30;1.00;;;10.90;99.90;;;;;;5132624;28;20662;-69
2023/02/18 04:43:55;;;;;;;1.43;1.10;;;10.90;99.90;;;;;;5132614;27;20212;-69
2023/02/18 04:46:22;;;;;;;1.10;0.90;;;10.80;99.90;;;;;;5132628;28;20248;-69
2023/02/18 04:48:48;;;;;;;1.63;1.03;;;10.80;99.90;;;;;;5132172;27;20192;-69
2023/02/18 04:51:13;;;;;;;1.37;1.00;;;10.80;99.90;;;;;;5132570;27;20476;-69
2023/02/18 04:53:39;;;;;;;1.13;0.97;;;10.80;99.90;;;;;;5132541;27;20574;-69
2023/02/18 04:56:04;;;;;;;1.47;1.07;;;10.80;99.90;;;;;;5132512;27;20742;-69
2023/02/18 04:58:30;;;;;;;1.70;1.23;;;10.80;99.90;;;;;;5143926;27;20274;-69
2023/02/18 05:01:00;;;;;;;0.90;0.77;;;10.80;99.90;;;;;;5133346;27;20285;-69
2023/02/18 05:03:27;;;;;;;4.03;2.30;;;10.80;99.90;;;;;;5124935;28;20250;-69
2023/02/18 05:05:53;;;;;;;1.50;1.00;;;10.70;99.90;;;;;;5111825;28;20441;-69
2023/02/18 05:08:18;;;;;;;1.87;1.20;;;10.70;99.90;;;;;;5112453;28;20944;-69
2023/02/18 05:10:44;;;;;;;1.50;1.03;;;10.70;99.90;;;;;;5110589;28;20172;-69
2023/02/18 05:13:09;;;;;;;1.60;1.23;;;10.70;99.90;;;;;;5111776;28;20207;-69
2023/02/18 05:15:35;;;;;;;1.50;1.40;;;10.70;99.90;;;;;;5110389;28;20224;-69
2023/02/18 05:18:00;;;;;;;1.17;1.00;;;10.70;99.90;;;;;;5111475;28;20217;-69
2023/02/18 05:20:26;;;;;;;1.27;1.17;;;10.70;99.90;;;;;;5114196;28;20168;-69
2023/02/18 05:22:52;;;;;;;1.93;1.73;;;10.70;99.90;;;;;;5115637;28;20248;-69
2023/02/18 05:25:17;;;;;;;2.30;1.80;;;10.70;99.90;;;;;;5115564;28;20168;-69
2023/02/18 05:27:43;;;;;;;1.40;1.30;;;10.70;99.90;;;;;;5115174;28;20165;-69
2023/02/18 05:30:09;;;;;;;2.47;1.70;;;10.70;99.90;;;;;;5115426;28;20168;-69
2023/02/18 05:32:34;;;;;;;2.63;1.70;;;10.70;99.90;;;;;;5116798;27;20169;-69
2023/02/18 05:35:00;;;;;;;3.73;2.60;;;10.70;99.90;;;;;;5131463;27;20611;-69
2023/02/18 05:37:25;;;;;;;2.27;1.80;;;10.70;99.90;;;;;;5115042;28;20193;-69
2023/02/18 05:39:51;;;;;;;2.43;1.80;;;10.60;99.90;;;;;;5115300;28;20165;-69
2023/02/18 05:42:16;;;;;;;2.10;1.67;;;10.60;99.90;;;;;;5115163;28;20244;-69
2023/02/18 05:44:42;;;;;;;2.57;2.30;;;10.70;99.90;;;;;;5115094;28;20242;-69
2023/02/18 05:47:10;;;;;;;5.20;2.33;;;10.70;99.90;;;;;;5114842;28;20157;-69
2023/02/18 05:49:37;;;;;;;1.70;1.50;;;10.60;99.90;;;;;;5114935;28;20185;-69
2023/02/18 05:52:03;;;;;;;2.47;1.87;;;10.60;99.90;;;;;;5115682;28;20471;-69
2023/02/18 05:54:29;;;;;;;3.10;2.47;;;10.60;99.90;;;;;;5115660;28;20395;-69
2023/02/18 05:56:55;;;;;;;1.87;1.77;;;10.60;99.90;;;;;;5115082;28;20759;-69
2023/02/18 05:59:21;;;;;;;2.60;2.20;;;10.60;99.90;;;;;;5115062;28;20421;-68
2023/02/18 06:01:47;;;;;;;8.80;2.43;;;10.60;99.90;;;;;;5129137;27;20418;-68
2023/02/18 06:04:13;;;;;;;3.13;2.83;;;10.60;99.90;;;;;;5121987;27;20411;-68
2023/02/18 06:06:39;;;;;;;3.23;2.93;;;10.50;99.90;;;;;;5144398;27;20167;-69
2023/02/18 06:09:06;;;;;;;2.93;2.50;;;10.50;99.90;;;;;;5155953;27;20421;-69
2023/02/18 06:11:32;;;;;;;2.47;2.20;;;10.50;99.90;;;;;;5154751;27;20412;-69
2023/02/18 06:13:57;;;;;;;2.50;2.07;;;10.40;99.90;;;;;;5131657;27;20529;-69
2023/02/18 06:16:23;;;;;;;2.40;2.20;;;10.50;99.90;;;;;;5135139;27;20955;-69
2023/02/18 06:18:49;;;;;;;2.07;1.97;;;10.50;99.90;;;;;;5117067;27;20426;-69
2023/02/18 06:21:14;;;;;;;2.50;2.23;;;10.50;99.90;;;;;;5114560;28;20631;-69
2023/02/18 06:23:40;;;;;;;3.50;2.17;;;10.50;99.90;;;;;;5114399;28;20168;-69
2023/02/18 06:26:05;;;;;;;2.07;1.73;;;10.40;99.90;;;;;;5114423;28;20175;-69
2023/02/18 06:28:31;;;;;;;2.17;1.87;;;10.40;99.90;;;;;;5114032;28;20184;-69
2023/02/18 06:30:57;;;;;;;3.03;2.30;;;10.50;99.90;;;;;;5113673;28;20172;-69
2023/02/18 06:33:22;;;;;;;1.93;1.83;;;10.50;99.90;;;;;;5113977;28;20218;-69
2023/02/18 06:36:00;;;;;;;1.73;1.60;;;10.50;99.90;;;;;;5114056;28;20734;-69
2023/02/18 06:38:25;;;;;;;2.00;1.80;;;10.50;99.90;;;;;;5113849;28;20257;-69
2023/02/18 06:40:51;;;;;;;1.50;1.40;;;10.50;99.90;;;;;;5122202;27;20835;-69
2023/02/18 06:43:17;;;;;;;2.13;1.80;;;10.50;99.90;;;;;;5114057;28;20910;-70
2023/02/18 06:45:43;;;;;;;2.30;1.90;;;10.60;99.90;;;;;;5114085;28;20658;-70
2023/02/18 06:48:09;;;;;;;1.93;1.57;;;10.60;99.90;;;;;;5113887;28;20426;-69
2023/02/18 06:50:34;;;;;;;1.80;1.43;;;10.60;99.90;;;;;;5113036;28;20172;-69
2023/02/18 06:53:00;;;;;;;2.17;1.70;;;10.60;99.90;;;;;;5114113;28;20428;-69
2023/02/18 06:55:25;;;;;;;1.70;1.07;;;10.70;99.90;;;;;;5114132;28;20184;-69
2023/02/18 06:57:50;;;;;;;1.57;1.30;;;10.70;99.90;;;;;;5113593;28;20188;-69
2023/02/18 07:00:16;;;;;;;1.50;1.00;;;10.80;99.90;;;;;;5114089;28;20187;-69
2023/02/18 07:02:42;;;;;;;1.20;1.10;;;10.70;99.90;;;;;;5113892;28;20641;-69
2023/02/18 07:05:08;;;;;;;1.00;0.70;;;10.80;99.90;;;;;;5114032;28;20913;-69
2023/02/18 07:07:33;;;;;;;1.73;1.20;;;10.80;99.90;;;;;;5112335;28;20173;-69
2023/02/18 07:09:59;;;;;;;1.17;1.03;;;10.90;99.90;;;;;;5114037;28;20211;-69
2023/02/18 07:12:25;;;;;;;1.07;0.90;;;10.90;99.90;;;;;;5113740;28;20410;-69
2023/02/18 07:14:50;;;;;;;2.90;1.50;;;10.90;99.90;;;;;;5113449;28;20193;-69
2023/02/18 07:17:16;;;;;;;1.73;1.20;;;10.90;99.90;;;;;;5141335;27;20209;-69
2023/02/18 07:19:41;;;;;;;1.53;0.87;;;11.00;99.90;;;;;;5155008;27;20187;-68
2023/02/18 07:22:07;;;;;;;1.13;1.00;;;11.10;99.90;;;;;;5154965;27;20163;-69
2023/02/18 07:24:32;;;;;;;1.00;0.90;;;11.10;99.90;;;;;;5153691;27;20172;-69
2023/02/18 07:26:58;;;;;;;1.30;1.10;;;11.10;99.90;;;;;;5136785;27;20172;-69
2023/02/18 07:29:23;;;;;;;1.30;1.20;;;11.10;99.90;;;;;;5133885;27;20531;-70
2023/02/18 07:31:49;;;;;;;2.93;1.50;;;11.20;99.90;;;;;;5133439;27;20163;-70
2023/02/18 07:34:15;;;;;;;1.40;0.90;;;11.20;99.90;;;;;;5133625;27;20152;-70
2023/02/18 07:36:41;;;;;;;0.90;0.70;;;11.30;99.90;;;;;;5133416;27;20203;-69
2023/02/18 07:39:06;;;;;;;1.07;0.70;;;11.30;99.90;;;;;;5133290;27;20270;-70
2023/02/18 07:41:32;;;;;;;0.90;0.80;;;11.30;99.90;;;;;;5133133;27;20992;-70
2023/02/18 07:43:58;;;;;;;1.03;0.87;;;11.40;99.90;;;;;;5132774;27;20634;-70
2023/02/18 07:46:23;;;;;;;1.13;0.80;;;11.60;99.90;;;;;;5133360;27;20191;-70
2023/02/18 07:48:49;;;;;;;1.37;0.90;;;11.50;99.90;;;;;;5133111;27;20193;-70
2023/02/18 07:51:14;;;;;;;1.20;0.80;;;11.60;99.90;;;;;;5133357;27;20849;-70
2023/02/18 07:53:40;;;;;;;1.10;0.80;;;11.50;99.90;;;;;;5133380;27;20171;-69
2023/02/18 07:56:06;;;;;;;1.47;1.00;;;11.40;99.90;;;;;;5131981;27;20326;-69
2023/02/18 07:58:34;;;;;;;1.00;0.90;;;11.30;99.90;;;;;;5132892;27;20445;-70
2023/02/18 08:01:04;;;;;;;1.73;0.80;;;11.20;99.90;;;;;;5116938;27;20216;-70
2023/02/18 08:03:31;;;;;;;1.73;1.13;;;11.10;99.90;;;;;;5112647;28;20414;-69
2023/02/18 08:05:56;;;;;;;2.60;1.40;;;11.10;99.90;;;;;;5112597;28;20820;-70
2023/02/18 08:08:27;;;;;;;3.60;1.57;;;11.10;99.90;;;;;;5112186;28;20429;-69
2023/02/18 08:10:54;;;;;;;4.93;1.60;;;11.00;99.90;;;;;;5111328;28;20168;-70
2023/02/18 08:13:20;;;;;;;3.03;2.73;;;11.00;99.90;;;;;;5112371;28;20427;-70
2023/02/18 08:15:46;;;;;;;1.57;1.47;;;11.00;99.90;;;;;;5111083;28;20522;-70
2023/02/18 08:18:21;;;;;;;3.20;1.90;;;11.00;99.90;;;;;;5112198;28;20233;-70
2023/02/18 08:20:48;;;;;;;4.30;1.77;;;10.90;99.90;;;;;;5112808;28;20170;-69
2023/02/18 08:23:14;;;;;;;3.70;1.70;;;10.80;99.90;;;;;;5111109;28;20431;-69
2023/02/18 08:25:43;;;;;;;1.80;1.20;;;10.80;99.90;;;;;;5120160;28;20420;-70
2023/02/18 08:28:09;;;;;;;2.60;1.57;;;10.80;99.90;;;;;;5125901;27;20441;-70
2023/02/18 08:30:34;;;;;;;2.50;1.50;;;10.90;99.90;;;;;;5149345;27;20457;-70
2023/02/18 08:33:00;;;;;;;3.53;1.67;;;10.90;99.90;;;;;;5152293;27;20238;-70
2023/02/18 08:35:25;;;;;;;3.83;1.20;;;10.80;99.90;;;;;;5153419;27;20203;-70
2023/02/18 08:37:51;;;;;;;7.00;2.00;;;10.80;99.90;;;;;;5152941;27;20601;-70
2023/02/18 08:40:16;;;;;;;3.23;1.87;;;10.80;99.90;;;;;;5153527;27;20167;-70
2023/02/18 08:42:42;;;;;;;4.03;2.20;;;10.90;99.90;;;;;;5153553;27;20622;-70
2023/02/18 08:45:07;;;;;;;4.73;1.80;;;10.80;99.90;;;;;;5153422;27;20168;-69
2023/02/18 08:47:33;;;;;;;9.33;1.73;;;10.80;99.90;;;;;;5153124;27;20164;-70
2023/02/18 08:49:58;;;;;;;1.73;1.60;;;10.90;99.90;;;;;;5153388;27;20658;-70
2023/02/18 08:52:24;;;;;;;6.50;2.40;;;10.90;99.90;;;;;;5153484;27;20522;-70
2023/02/18 08:54:50;;;;;;;2.03;1.67;;;10.90;99.90;;;;;;5149728;27;20211;-70
2023/02/18 08:57:16;;;;;;;3.40;1.97;;;11.00;99.90;;;;;;5136452;27;20470;-70
2023/02/18 08:59:41;;;;;;;4.83;1.70;;;11.00;99.90;;;;;;5136600;27;20180;-70
2023/02/18 09:02:08;;;;;;;3.30;2.00;;;11.00;99.90;;;;;;5136617;27;20201;-70
2023/02/18 09:04:33;;;;;;;4.70;1.97;;;11.00;99.90;;;;;;5130500;27;20204;-70
2023/02/18 09:06:59;;;;;;;3.27;2.60;;;11.00;99.90;;;;;;5115615;28;20816;-70
2023/02/18 09:09:24;;;;;;;5.70;1.83;;;10.90;99.90;;;;;;5115898;28;20191;-70
2023/02/18 09:11:50;;;;;;;3.00;1.60;;;11.10;99.90;;;;;;5115915;28;20169;-70
2023/02/18 09:14:16;;;;;;;3.37;1.47;;;11.10;99.90;;;;;;5115706;28;20233;-70
2023/02/18 09:16:42;;;;;;;1.67;1.57;;;11.20;99.90;;;;;;5115519;28;20211;-69
2023/02/18 09:19:08;;;;;;;8.77;1.70;;;11.40;99.90;;;;;;5115330;28;20188;-69
2023/02/18 09:21:34;;;;;;;1.97;1.50;;;11.40;99.90;;;;;;5115707;28;20463;-69
2023/02/18 09:23:59;;;;;;;5.83;1.47;;;11.40;99.90;;;;;;5120538;27;20448;-69
2023/02/18 09:26:26;;;;;;;3.47;2.30;;;11.50;99.90;;;;;;5135194;27;20412;-69
2023/02/18 09:28:52;;;;;;;3.97;1.50;;;11.60;99.90;;;;;;5135547;27;20219;-70
2023/02/18 09:31:20;;;;;;;4.73;1.40;;;11.70;99.90;;;;;;5136126;27;20398;-70
2023/02/18 09:33:58;;;;;;;2.40;1.50;;;11.70;99.90;;;;;;5135987;27;20401;-70
2023/02/18 09:36:24;;;;;;;2.30;1.47;;;11.80;99.90;;;;;;5135965;27;20455;-70
2023/02/18 09:38:50;;;;;;;3.30;1.47;;;11.90;99.90;;;;;;5137649;27;20426;-70
2023/02/18 09:41:43;;;;;;;4.27;2.17;;;11.80;99.90;;;;;;5146553;27;20505;-70
2023/02/18 09:44:12;;;;;;;3.57;1.40;;;11.70;99.90;;;;;;5136061;27;20585;-70
2023/02/18 09:46:49;;;;;;;8.40;1.80;;;11.70;99.90;;;;;;5134693;27;20935;-69
2023/02/18 09:49:22;;;;;;;6.23;2.33;;;11.90;99.90;;;;;;5135566;27;20421;-70
2023/02/18 09:51:48;;;;;;;3.90;2.10;;;11.80;99.90;;;;;;5135735;27;20409;-69
2023/02/18 09:54:19;;;;;;;1.70;1.50;;;11.80;99.90;;;;;;5123286;27;20411;-69
2023/02/18 09:56:46;;;;;;;3.70;1.50;;;11.70;99.90;;;;;;5113939;27;20255;-70
2023/02/18 09:59:16;;;;;;;3.37;1.97;;;11.70;99.90;;;;;;5114706;28;20419;-70
2023/02/18 10:01:44;;;;;;;8.20;1.80;;;11.60;99.90;;;;;;5114859;28;20425;-70
2023/02/18 10:04:23;;;;;;;5.97;1.83;;;11.60;99.90;;;;;;5116303;27;20406;-70
2023/02/18 10:06:51;;;;;;;3.57;1.53;;;11.60;99.90;;;;;;5134374;27;20412;-70
2023/02/18 10:09:28;;;;;;;12.67;2.40;;;11.70;99.90;;;;;;5135241;27;20428;-70
2023/02/18 10:12:06;;;;;;;6.50;1.60;;;11.90;99.90;;;;;;5135445;27;20768;-70
2023/02/18 10:14:34;;;;;;;5.83;1.83;;;11.90;99.90;;;;;;5135218;27;20499;-70
2023/02/18 10:17:00;;;;;;;5.83;1.60;;;11.90;99.90;;;;;;5134840;27;20489;-70
2023/02/18 10:19:32;;;;;;;3.20;1.60;;;11.90;99.90;;;;;;5135045;27;20551;-70
2023/02/18 10:22:01;;;;;;;3.50;1.80;;;12.00;99.90;;;;;;5135143;27;20251;-70
2023/02/18 10:24:32;;;;;;;5.03;2.10;;;12.00;99.90;;;;;;5122167;27;20481;-70
2023/02/18 10:26:59;;;;;;;4.10;2.00;;;12.00;99.90;;;;;;5112459;28;20411;-70
2023/02/18 10:29:26;;;;;;;3.53;1.83;;;12.00;99.90;;;;;;5114288;28;20426;-70
2023/02/18 10:32:03;;;;;;;3.30;1.70;;;12.10;99.90;;;;;;5114301;28;20395;-70
2023/02/18 10:34:41;;;;;;;3.87;2.20;;;12.10;99.90;;;;;;5114303;28;20394;-70
2023/02/18 10:37:32;;;;;;;4.30;2.00;;;11.90;99.90;;;;;;5114045;28;20411;-70
2023/02/18 10:40:02;;;;;;;3.27;1.70;;;12.00;99.90;;;;;;5114219;28;21221;-70
2023/02/18 10:42:49;;;;;;;3.87;1.60;;;12.00;99.90;;;;;;5114232;28;20761;-70
2023/02/18 10:45:47;;;;;;;9.63;2.07;;;11.90;99.90;;;;;;5114130;28;20406;-70
2023/02/18 10:48:32;;;;;;;2.90;1.70;;;12.00;99.90;;;;;;5143228;27;20481;-70
2023/02/18 10:51:02;;;;;;;5.80;1.80;;;12.00;99.90;;;;;;5113982;28;20401;-70
2023/02/18 10:53:34;;;;;;;2.00;1.40;;;11.90;99.90;;;;;;5122962;27;20422;-70
2023/02/18 10:56:00;;;;;;;5.57;3.20;;;11.90;99.90;;;;;;5113850;28;20563;-70
2023/02/18 10:58:34;;;;;;;4.40;2.13;;;11.90;99.90;;;;;;5113349;28;20506;-70
2023/02/18 11:01:03;;;;;;;2.83;1.90;;;11.80;99.90;;;;;;5114055;28;20399;-70
2023/02/18 11:03:44;;;;;;;5.03;2.13;;;11.70;99.90;;;;;;5113672;28;20889;-69
2023/02/18 11:06:41;;;;;;;9.97;2.33;;;11.60;99.90;;;;;;5133305;27;20938;-69
2023/02/18 11:09:24;;;;;;;5.37;2.20;;;11.50;99.90;;;;;;5133498;27;20452;-70
2023/02/18 11:11:50;;;;;;;2.60;2.30;;;11.20;99.90;;;;;;5134028;27;20396;-70
2023/02/18 11:14:34;;;;;;;5.57;1.80;;;11.20;99.90;;;;;;5132632;27;20805;-70
2023/02/18 11:17:09;;;;;;;3.30;3.00;;;11.20;99.90;;;;;;5133597;27;20227;-70
2023/02/18 11:19:37;;;;;;;3.13;2.50;;;11.20;99.90;;;;;;5133958;27;20467;-70
2023/02/18 11:22:17;;;;;;;3.40;2.07;;;11.10;99.90;;;;;;5130269;27;20433;-69
2023/02/18 11:24:47;;;;;;;1.70;1.60;;;11.20;99.90;;;;;;5113355;27;20422;-69
2023/02/18 11:27:29;;;;;;;3.37;3.17;;;11.30;99.90;;;;;;5113171;28;20434;-69
2023/02/18 11:30:18;;;;;;;3.63;1.87;;;11.40;99.90;;;;;;5113497;28;20403;-70
2023/02/18 11:32:45;;;;;;;3.40;1.80;;;11.40;99.90;;;;;;5112964;28;20395;-70
2023/02/18 11:35:23;;;;;;;2.90;2.20;;;11.30;99.90;;;;;;5113157;28;20446;-69
2023/02/18 11:37:49;;;;;;;2.97;2.27;;;11.30;99.90;;;;;;5111574;28;20433;-70
2023/02/18 11:40:24;;;;;;;2.17;1.90;;;11.30;99.90;;;;;;5113086;28;20738;-71
2023/02/18 11:42:50;;;;;;;4.30;2.13;;;11.20;99.90;;;;;;5112995;28;20895;-70
2023/02/18 11:45:28;;;;;;;2.33;1.77;;;11.20;99.90;;;;;;5112787;28;20404;-70
2023/02/18 11:48:05;;;;;;;6.13;2.90;;;11.10;99.90;;;;;;5112638;28;20229;-70
2023/02/18 11:50:33;;;;;;;2.50;2.30;;;11.00;99.90;;;;;;5113754;27;20462;-70
2023/02/18 11:52:59;;;;;;;2.10;1.83;;;10.90;99.90;;;;;;5134418;27;20417;-70
2023/02/18 11:55:29;;;;;;;4.00;2.30;;;10.80;99.90;;;;;;5143790;27;20445;-70
2023/02/18 11:58:04;;;;;;;4.10;1.63;;;10.70;99.90;;;;;;5132946;27;20409;-70
2023/02/18 12:00:44;;;;;;;1.63;1.50;;;10.70;99.90;;;;;;5133343;27;20398;-70
2023/02/18 12:03:36;;;;;;;2.07;1.80;;;10.70;99.90;;;;;;5133277;27;20405;-70
2023/02/18 12:06:05;;;;;;;2.30;2.03;;;10.70;99.90;;;;;;5083106;28;20896;-70
2023/02/18 12:08:46;;;;;;;7.43;2.53;;;10.70;99.90;;;;;;5112283;28;20419;-70
2023/02/18 12:11:28;;;;;;;1.93;1.63;;;10.70;99.90;;;;;;5112631;28;20395;-70
2023/02/18 12:13:55;;;;;;;9.47;1.97;;;10.60;99.90;;;;;;5112494;28;20418;-70
2023/02/18 12:16:44;;;;;;;2.40;2.20;;;10.50;99.90;;;;;;5112278;28;20442;-70
2023/02/18 12:19:24;;;;;;;2.53;2.33;;;10.50;99.90;;;;;;5124911;27;20425;-69
2023/02/18 12:22:16;;;;;;;2.70;2.40;;;10.60;99.90;;;;;;5132953;27;20401;-70
2023/02/18 12:25:00;;;;;;;2.33;2.00;;;10.60;99.90;;;;;;5132851;27;20908;-70
2023/02/18 12:27:38;;;;;;;2.47;1.90;;;10.50;99.90;;;;;;5132564;27;20470;-70
2023/02/18 12:30:41;;;;;;;1.70;1.60;;;10.60;99.90;;;;;;5132491;27;20814;-70
2023/02/18 12:33:26;;;;;;;2.50;2.30;;;10.60;99.90;;;;;;5132843;27;20907;-70
2023/02/18 12:36:14;;;;;;;4.27;2.23;;;10.70;99.90;;;;;;5132701;28;20501;-70
2023/02/18 12:39:04;;;;;;;5.73;3.00;;;10.60;99.90;;;;;;5132562;27;20440;-71
2023/02/18 12:41:54;;;;;;;1.77;1.63;;;10.80;99.90;;;;;;5132766;28;20397;-70
2023/02/18 12:44:35;;;;;;;2.20;2.10;;;10.90;99.90;;;;;;5131727;27;20410;-70
2023/02/18 12:47:22;;;;;;;2.40;2.17;;;10.80;99.90;;;;;;5132564;27;20394;-70
2023/02/18 12:50:10;;;;;;;3.80;3.50;;;10.90;99.90;;;;;;5113199;28;20492;-70
2023/02/18 12:52:35;;;;;;;2.03;1.87;;;10.80;99.90;;;;;;5111127;28;20932;-71
2023/02/18 12:55:18;;;;;;;2.80;2.13;;;10.80;99.90;;;;;;5110596;28;20540;-70
2023/02/18 12:58:12;;;;;;;2.50;2.30;;;11.00;99.90;;;;;;5110463;28;20169;-70
2023/02/18 13:00:52;;;;;;;2.50;1.93;;;11.00;99.90;;;;;;5112313;28;20430;-70